createdAt,value
2022-08-04T00:01:04.417Z,22.20
2022-08-04T00:03:42.969Z,22.20
2022-08-04T00:06:19.985Z,22.20
2022-08-04T00:08:53.103Z,22.20
2022-08-04T00:11:27.563Z,22.20
2022-08-04T00:14:03.005Z,22.10
2022-08-04T00:16:38.350Z,22.10
2022-08-04T00:19:13.244Z,22.00
2022-08-04T00:21:49.210Z,21.90
2022-08-04T00:24:19.474Z,21.80
2022-08-04T00:26:48.688Z,21.80
2022-08-04T00:29:18.006Z,21.80
2022-08-04T00:31:55.068Z,21.80
2022-08-04T00:34:29.326Z,21.80
2022-08-04T00:36:59.770Z,21.80
2022-08-04T00:39:29.695Z,21.70
2022-08-04T00:42:24.166Z,21.70
2022-08-04T00:45:07.778Z,21.70
2022-08-04T00:47:49.776Z,21.70
2022-08-04T00:50:28.938Z,21.70
2022-08-04T00:53:07.694Z,21.60
2022-08-04T00:55:56.105Z,21.60
2022-08-04T00:58:45.089Z,21.60
2022-08-04T01:01:28.648Z,21.40
2022-08-04T01:04:04.909Z,21.50
2022-08-04T01:06:56.114Z,21.40
2022-08-04T01:09:33.690Z,21.40
2022-08-04T01:12:24.113Z,21.30
2022-08-04T01:15:04.299Z,21.30
2022-08-04T01:17:45.379Z,21.30
2022-08-04T01:20:22.116Z,21.30
2022-08-04T01:23:36.430Z,21.30
2022-08-04T01:26:43.736Z,21.20
2022-08-04T01:29:21.972Z,21.10
2022-08-04T01:32:09.516Z,21.00
2022-08-04T01:34:43.207Z,21.00
2022-08-04T01:37:29.402Z,21.00
2022-08-04T01:40:05.158Z,21.00
2022-08-04T01:42:35.425Z,20.90
2022-08-04T01:45:09.085Z,20.90
2022-08-04T01:47:39.086Z,20.80
2022-08-04T01:50:10.756Z,20.70
2022-08-04T01:52:42.071Z,20.80
2022-08-04T01:55:12.401Z,20.80
2022-08-04T01:57:44.774Z,20.80
2022-08-04T02:00:17.256Z,20.70
2022-08-04T02:02:46.892Z,20.70
2022-08-04T02:05:18.008Z,20.70
2022-08-04T02:08:12.271Z,20.70
2022-08-04T02:10:55.874Z,20.60
2022-08-04T02:13:29.443Z,20.60
2022-08-04T02:16:05.395Z,20.60
2022-08-04T02:18:41.965Z,20.50
2022-08-04T02:21:11.068Z,20.50
2022-08-04T02:23:42.046Z,20.40
2022-08-04T02:26:19.367Z,20.30
2022-08-04T02:29:02.402Z,20.30
2022-08-04T02:31:37.913Z,20.30
2022-08-04T02:34:10.968Z,20.20
2022-08-04T02:36:41.573Z,20.20
2022-08-04T02:39:12.240Z,20.20
2022-08-04T02:41:42.122Z,20.10
2022-08-04T02:44:11.940Z,20.20
2022-08-04T02:46:43.640Z,20.10
2022-08-04T02:49:12.629Z,20.10
2022-08-04T02:51:44.097Z,20.20
2022-08-04T02:54:13.374Z,20.10
2022-08-04T02:56:46.140Z,20.20
2022-08-04T02:59:21.751Z,20.20
2022-08-04T03:01:57.087Z,20.10
2022-08-04T03:04:44.732Z,20.20
2022-08-04T03:07:36.645Z,20.20
2022-08-04T03:10:31.646Z,20.10
2022-08-04T03:13:30.074Z,20.00
2022-08-04T03:16:24.017Z,20.00
2022-08-04T03:19:38.109Z,19.90
2022-08-04T03:22:45.059Z,19.90
2022-08-04T03:25:56.790Z,19.90
2022-08-04T03:29:00.884Z,19.90
2022-08-04T03:32:07.246Z,19.90
2022-08-04T03:34:51.349Z,19.90
2022-08-04T03:37:40.421Z,19.90
2022-08-04T03:40:32.494Z,19.90
2022-08-04T03:43:58.879Z,19.90
2022-08-04T03:46:48.927Z,19.80
2022-08-04T03:49:49.539Z,19.80
2022-08-04T03:52:58.870Z,19.80
2022-08-04T03:55:48.147Z,19.90
2022-08-04T03:58:44.908Z,19.80
2022-08-04T04:01:41.582Z,19.80
2022-08-04T04:04:55.198Z,19.90
2022-08-04T04:08:03.981Z,19.80
2022-08-04T04:11:02.373Z,19.90
2022-08-04T04:13:57.309Z,19.90
2022-08-04T04:16:39.849Z,19.90
2022-08-04T04:19:32.350Z,19.90
2022-08-04T04:22:21.542Z,20.00
2022-08-04T04:25:04.850Z,20.10
2022-08-04T04:27:47.428Z,20.10
2022-08-04T04:30:20.698Z,20.20
2022-08-04T04:33:05.967Z,20.20
2022-08-04T04:35:42.782Z,20.30
2022-08-04T04:38:36.048Z,20.30
2022-08-04T04:41:22.940Z,20.40
2022-08-04T04:44:16.465Z,20.40
2022-08-04T04:46:50.212Z,20.50
2022-08-04T04:49:30.392Z,20.60
2022-08-04T04:52:06.764Z,20.60
2022-08-04T04:54:40.970Z,20.70
2022-08-04T04:57:14.993Z,20.70
2022-08-04T04:59:57.768Z,20.70
2022-08-04T05:03:09.144Z,20.70
2022-08-04T05:06:11.926Z,20.70
2022-08-04T05:09:05.385Z,20.90
2022-08-04T05:12:02.573Z,21.00
2022-08-04T05:14:41.810Z,21.10
2022-08-04T05:17:18.737Z,21.10
2022-08-04T05:19:57.499Z,21.20
2022-08-04T05:22:31.110Z,21.20
2022-08-04T05:25:06.148Z,21.20
2022-08-04T05:27:41.298Z,21.20
2022-08-04T05:30:12.048Z,21.30
2022-08-04T05:32:49.436Z,21.40
2022-08-04T05:35:47.904Z,21.60
2022-08-04T05:38:17.021Z,21.50
2022-08-04T05:40:46.329Z,21.60
2022-08-04T05:43:17.427Z,21.70
2022-08-04T05:45:48.718Z,21.80
2022-08-04T05:48:18.111Z,22.00
2022-08-04T05:50:47.778Z,22.10
2022-08-04T05:53:18.380Z,22.20
2022-08-04T05:55:58.077Z,22.30
2022-08-04T05:58:31.052Z,22.40
2022-08-04T06:01:02.183Z,22.50
2022-08-04T06:03:33.221Z,22.60
2022-08-04T06:06:02.701Z,22.70
2022-08-04T06:08:32.293Z,22.90
2022-08-04T06:11:05.672Z,23.00
2022-08-04T06:13:47.930Z,23.10
2022-08-04T06:16:29.583Z,23.10
2022-08-04T06:19:59.981Z,23.20
2022-08-04T06:21:54.598Z,23.30
2022-08-04T06:24:27.787Z,23.40
2022-08-04T06:26:58.177Z,23.50
2022-08-04T06:29:36.009Z,23.70
2022-08-04T06:32:29.878Z,24.00
2022-08-04T06:35:04.460Z,24.50
2022-08-04T06:37:42.346Z,25.20
2022-08-04T06:40:31.783Z,25.70
2022-08-04T06:43:03.271Z,26.30
2022-08-04T06:45:35.691Z,27.10
2022-08-04T06:48:06.556Z,27.90
2022-08-04T06:51:26.621Z,28.20
2022-08-04T06:53:27.413Z,28.70
2022-08-04T06:55:57.796Z,29.30
2022-08-04T06:58:27.485Z,29.50
2022-08-04T07:01:02.177Z,29.70
2022-08-04T07:03:32.471Z,30.40
2022-08-04T07:06:06.260Z,31.10
2022-08-04T07:08:44.131Z,31.50
2022-08-04T07:11:13.928Z,32.20
2022-08-04T07:13:45.343Z,32.70
2022-08-04T07:16:17.847Z,33.10
2022-08-04T07:18:46.964Z,33.70
2022-08-04T07:21:23.338Z,34.10
2022-08-04T07:23:52.977Z,34.50
2022-08-04T07:26:22.249Z,34.70
2022-08-04T07:28:51.012Z,35.20
2022-08-04T07:31:33.471Z,34.80
2022-08-04T07:34:17.208Z,34.90
2022-08-04T07:36:55.074Z,35.90
2022-08-04T07:39:28.700Z,36.10
2022-08-04T07:42:01.601Z,35.90
2022-08-04T07:44:32.559Z,36.50
2022-08-04T07:47:04.035Z,36.50
2022-08-04T07:49:55.614Z,36.80
2022-08-04T07:52:23.240Z,37.00
2022-08-04T07:54:52.964Z,37.10
2022-08-04T07:57:41.610Z,37.40
2022-08-04T08:00:14.685Z,37.40
2022-08-04T08:02:45.037Z,38.40
2022-08-04T08:05:17.057Z,39.00
2022-08-04T08:07:50.758Z,39.20
2022-08-04T08:10:23.998Z,38.90
2022-08-04T08:12:53.030Z,39.60
2022-08-04T08:15:22.341Z,40.20
2022-08-04T08:17:57.819Z,40.50
2022-08-04T08:20:30.938Z,40.20
2022-08-04T08:23:01.249Z,40.30
2022-08-04T08:25:32.008Z,40.50
2022-08-04T08:28:01.352Z,41.10
2022-08-04T08:30:31.729Z,41.00
2022-08-04T08:33:07.391Z,41.50
2022-08-04T08:35:56.324Z,41.90
2022-08-04T08:38:42.282Z,41.90
2022-08-04T08:41:40.502Z,42.60
2022-08-04T08:44:37.875Z,43.40
2022-08-04T08:47:20.785Z,43.50
2022-08-04T08:50:33.861Z,42.70
2022-08-04T08:53:23.632Z,43.10
2022-08-04T08:56:15.338Z,43.00
2022-08-04T08:58:56.255Z,42.70
2022-08-04T09:01:51.621Z,42.70
2022-08-04T09:04:42.279Z,43.80
2022-08-04T09:07:29.461Z,44.60
2022-08-04T09:10:18.847Z,45.60
2022-08-04T09:12:53.438Z,46.50
2022-08-04T09:15:31.331Z,46.40
2022-08-04T09:18:05.565Z,47.20
2022-08-04T09:20:42.010Z,47.30
2022-08-04T09:23:25.998Z,47.60
2022-08-04T09:26:02.629Z,46.90
2022-08-04T09:28:53.704Z,46.50
2022-08-04T09:31:26.267Z,47.00
2022-08-04T09:34:06.031Z,48.00
2022-08-04T09:36:40.915Z,47.60
2022-08-04T09:39:20.944Z,48.10
2022-08-04T09:42:01.392Z,48.20
2022-08-04T09:44:50.547Z,48.10
2022-08-04T09:47:39.857Z,48.80
2022-08-04T09:50:27.870Z,49.00
2022-08-04T09:53:04.472Z,49.00
2022-08-04T09:55:54.515Z,50.40
2022-08-04T09:58:37.732Z,50.80
2022-08-04T10:01:11.175Z,50.90
2022-08-04T10:03:44.677Z,50.70
2022-08-04T10:06:42.973Z,50.40
2022-08-04T10:09:32.391Z,49.20
2022-08-04T10:12:33.833Z,48.30
2022-08-04T10:15:16.561Z,48.50
2022-08-04T10:18:03.943Z,48.00
2022-08-04T10:20:52.727Z,48.20
2022-08-04T10:23:55.163Z,48.30
2022-08-04T10:26:34.885Z,48.60
2022-08-04T10:29:09.266Z,48.60
2022-08-04T10:31:45.640Z,49.10
2022-08-04T10:34:20.521Z,50.00
2022-08-04T10:37:01.118Z,50.80
2022-08-04T10:39:43.378Z,51.10
2022-08-04T10:42:23.700Z,50.40
2022-08-04T10:45:07.133Z,49.10
2022-08-04T10:47:45.275Z,49.70
2022-08-04T10:50:25.714Z,50.50
2022-08-04T10:53:02.486Z,50.60
2022-08-04T10:56:06.345Z,51.40
2022-08-04T10:58:46.961Z,51.90
2022-08-04T11:02:01.322Z,53.00
2022-08-04T11:04:27.457Z,52.20
2022-08-04T11:06:57.802Z,52.20
2022-08-04T11:09:27.095Z,52.10
2022-08-04T11:12:01.270Z,52.30
2022-08-04T11:14:36.427Z,53.10
2022-08-04T11:17:09.371Z,53.20
2022-08-04T11:19:53.166Z,51.90
2022-08-04T11:22:27.818Z,51.50
2022-08-04T11:25:09.751Z,51.00
2022-08-04T11:27:45.546Z,51.20
2022-08-04T11:30:15.969Z,50.90
2022-08-04T11:32:49.073Z,50.80
2022-08-04T11:35:29.139Z,50.20
2022-08-04T11:38:06.265Z,50.00
2022-08-04T11:40:39.265Z,51.00
2022-08-04T11:43:14.192Z,50.90
2022-08-04T11:45:52.355Z,49.90
2022-08-04T11:48:26.823Z,49.40
2022-08-04T11:50:57.493Z,50.00
2022-08-04T11:53:28.478Z,50.50
2022-08-04T11:56:11.514Z,50.70
2022-08-04T11:58:41.492Z,51.20
2022-08-04T12:01:27.869Z,51.40
2022-08-04T12:04:04.993Z,51.00
2022-08-04T12:06:56.866Z,50.60
2022-08-04T12:09:44.022Z,50.10
2022-08-04T12:12:21.236Z,48.30
2022-08-04T12:14:57.399Z,48.20
2022-08-04T12:17:36.337Z,49.20
2022-08-04T12:20:38.107Z,49.50
2022-08-04T12:23:22.881Z,50.50
2022-08-04T12:25:56.388Z,49.90
2022-08-04T12:28:52.707Z,49.50
2022-08-04T12:31:28.030Z,48.90
2022-08-04T12:34:05.323Z,48.70
2022-08-04T12:36:41.735Z,48.90
2022-08-04T12:39:18.061Z,49.10
2022-08-04T12:42:05.262Z,48.80
2022-08-04T12:44:38.893Z,48.90
2022-08-04T12:47:27.809Z,49.40
2022-08-04T12:50:03.999Z,49.50
2022-08-04T12:53:00.379Z,49.90
2022-08-04T12:55:30.268Z,50.80
2022-08-04T12:58:00.430Z,50.50
2022-08-04T13:00:40.783Z,50.60
2022-08-04T13:03:13.635Z,50.80
2022-08-04T13:05:43.597Z,51.10
2022-08-04T13:08:13.972Z,51.80
2022-08-04T13:10:47.728Z,51.90
2022-08-04T13:13:19.877Z,51.40
2022-08-04T13:16:00.354Z,51.90
2022-08-04T13:18:32.251Z,51.50
2022-08-04T13:21:19.893Z,50.30
2022-08-04T13:24:19.095Z,50.10
2022-08-04T13:26:55.947Z,50.00
2022-08-04T13:29:57.729Z,50.90
2022-08-04T13:32:23.569Z,50.70
2022-08-04T13:34:55.658Z,50.50
2022-08-04T13:37:27.954Z,50.30
2022-08-04T13:39:59.915Z,50.30
2022-08-04T13:42:30.659Z,50.30
2022-08-04T13:45:01.043Z,49.80
2022-08-04T13:47:35.205Z,49.20
2022-08-04T13:50:20.929Z,49.50
2022-08-04T13:52:54.085Z,49.20
2022-08-04T13:55:25.962Z,48.90
2022-08-04T13:58:10.812Z,48.60
2022-08-04T14:00:44.331Z,47.70
2022-08-04T14:03:24.235Z,47.30
2022-08-04T14:06:26.272Z,47.10
2022-08-04T14:08:57.233Z,46.80
2022-08-04T14:12:09.139Z,46.10
2022-08-04T14:14:28.808Z,45.50
2022-08-04T14:17:02.270Z,45.00
2022-08-04T14:19:49.702Z,44.30
2022-08-04T14:22:35.314Z,43.70
2022-08-04T14:25:09.246Z,43.60
2022-08-04T14:27:46.773Z,43.20
2022-08-04T14:30:28.785Z,43.30
2022-08-04T14:34:02.762Z,43.90
2022-08-04T14:36:04.246Z,44.60
2022-08-04T14:38:50.064Z,44.40
2022-08-04T14:41:20.858Z,44.40
2022-08-04T14:43:51.876Z,43.90
2022-08-04T14:46:23.926Z,43.50
2022-08-04T14:49:10.500Z,42.70
2022-08-04T14:51:42.603Z,42.70
2022-08-04T14:54:18.178Z,42.60
2022-08-04T14:56:54.659Z,43.00
2022-08-04T14:59:23.736Z,43.00
2022-08-04T15:02:00.183Z,43.10
2022-08-04T15:04:32.663Z,43.50
2022-08-04T15:07:04.467Z,44.10
2022-08-04T15:09:34.469Z,44.00
2022-08-04T15:12:05.537Z,44.00
2022-08-04T15:14:37.935Z,43.80
2022-08-04T15:17:29.107Z,43.80
2022-08-04T15:19:59.400Z,43.90
2022-08-04T15:22:28.510Z,43.80
2022-08-04T15:24:57.414Z,43.60
2022-08-04T15:27:30.092Z,43.30
2022-08-04T15:30:03.390Z,43.30
2022-08-04T15:32:35.668Z,43.30
2022-08-04T15:35:06.896Z,42.60
2022-08-04T15:37:44.377Z,42.20
2022-08-04T15:40:16.581Z,41.70
2022-08-04T15:42:49.788Z,40.90
2022-08-04T15:46:32.910Z,40.20
2022-08-04T15:48:35.545Z,39.60
2022-08-04T15:51:14.572Z,38.80
2022-08-04T15:54:29.245Z,38.30
2022-08-04T15:57:03.741Z,38.00
2022-08-04T15:59:58.788Z,37.80
2022-08-04T16:02:51.311Z,37.80
2022-08-04T16:05:42.458Z,37.60
2022-08-04T16:08:15.934Z,37.40
2022-08-04T16:10:47.344Z,37.30
2022-08-04T16:13:19.785Z,37.00
2022-08-04T16:15:56.123Z,36.70
2022-08-04T16:18:44.153Z,36.50
2022-08-04T16:21:23.018Z,36.40
2022-08-04T16:24:19.960Z,36.20
2022-08-04T16:26:54.437Z,36.00
2022-08-04T16:29:36.184Z,36.00
2022-08-04T16:32:23.848Z,35.80
2022-08-04T16:35:00.304Z,35.30
2022-08-04T16:37:35.925Z,35.20
2022-08-04T16:40:37.121Z,35.00
2022-08-04T16:43:09.335Z,34.90
2022-08-04T16:45:55.637Z,34.90
2022-08-04T16:48:26.978Z,34.70
2022-08-04T16:51:05.314Z,34.50
2022-08-04T16:53:53.038Z,34.40
2022-08-04T16:56:34.182Z,34.30
2022-08-04T16:59:10.961Z,34.30
2022-08-04T17:01:46.066Z,34.00
2022-08-04T17:04:15.164Z,33.90
2022-08-04T17:06:46.636Z,33.80
2022-08-04T17:09:18.574Z,33.70
2022-08-04T17:11:48.830Z,33.70
2022-08-04T17:14:24.215Z,33.70
2022-08-04T17:16:54.232Z,33.70
2022-08-04T17:19:26.093Z,33.60
2022-08-04T17:22:03.956Z,33.60
2022-08-04T17:24:35.915Z,33.60
2022-08-04T17:28:09.710Z,33.40
2022-08-04T17:29:54.263Z,33.30
2022-08-04T17:32:24.404Z,33.30
2022-08-04T17:34:55.581Z,33.30
2022-08-04T17:37:38.046Z,33.20
2022-08-04T17:40:25.733Z,33.20
2022-08-04T17:44:00.714Z,33.00
2022-08-04T17:46:29.899Z,32.90
2022-08-04T17:49:01.140Z,32.90
2022-08-04T17:52:05.143Z,32.90
2022-08-04T17:54:37.260Z,32.90
2022-08-04T17:57:19.840Z,32.80
2022-08-04T17:59:56.480Z,32.70
2022-08-04T18:02:32.872Z,32.70
2022-08-04T18:05:07.411Z,32.50
2022-08-04T18:08:39.960Z,32.40
2022-08-04T18:10:51.560Z,32.20
2022-08-04T18:13:28.784Z,32.00
2022-08-04T18:16:04.537Z,31.80
2022-08-04T18:18:33.600Z,31.60
2022-08-04T18:21:05.054Z,31.50
2022-08-04T18:23:34.055Z,31.40
2022-08-04T18:26:03.669Z,31.30
2022-08-04T18:28:35.800Z,31.20
2022-08-04T18:31:05.802Z,31.00
2022-08-04T18:33:39.802Z,30.90
2022-08-04T18:36:35.575Z,30.50
2022-08-04T18:39:12.575Z,30.50
2022-08-04T18:42:01.275Z,30.30
2022-08-04T18:44:51.751Z,30.30
2022-08-04T18:47:23.480Z,30.20
2022-08-04T18:51:01.880Z,30.10
2022-08-04T18:52:45.742Z,30.00
2022-08-04T18:55:55.631Z,29.90
2022-08-04T18:58:07.401Z,29.90
2022-08-04T19:00:48.385Z,29.80
2022-08-04T19:03:23.096Z,29.70
2022-08-04T19:05:53.015Z,29.70
2022-08-04T19:08:34.566Z,29.50
2022-08-04T19:11:37.493Z,29.30
2022-08-04T19:14:00.845Z,29.30
2022-08-04T19:16:33.823Z,29.20
2022-08-04T19:19:05.591Z,29.10
2022-08-04T19:22:00.429Z,29.00
2022-08-04T19:24:32.331Z,28.90
2022-08-04T19:27:07.294Z,28.90
2022-08-04T19:29:42.952Z,28.80
2022-08-04T19:32:16.473Z,28.80
2022-08-04T19:37:58.416Z,28.50
2022-08-04T19:40:33.506Z,28.40
2022-08-04T19:43:14.381Z,28.30
2022-08-04T19:45:45.757Z,28.20
2022-08-04T19:48:19.605Z,28.10
2022-08-04T19:50:49.320Z,28.00
2022-08-04T19:53:20.175Z,27.90
2022-08-04T19:56:07.305Z,27.80
2022-08-04T19:58:36.485Z,27.80
2022-08-04T20:01:31.406Z,27.90
2022-08-04T20:04:09.086Z,27.90
2022-08-04T20:06:40.018Z,27.80
2022-08-04T20:09:25.004Z,27.70
2022-08-04T20:11:56.609Z,27.70
2022-08-04T20:14:31.107Z,27.40
2022-08-04T20:17:02.769Z,27.40
2022-08-04T20:19:33.255Z,27.40
2022-08-04T20:22:03.735Z,27.30
2022-08-04T20:24:38.833Z,27.20
2022-08-04T20:27:15.628Z,27.20
2022-08-04T20:29:55.589Z,27.10
2022-08-04T20:32:27.794Z,27.00
2022-08-04T20:34:59.611Z,26.90
2022-08-04T20:37:55.160Z,26.80
2022-08-04T20:40:18.573Z,26.90
2022-08-04T20:42:48.202Z,26.80
2022-08-04T20:45:17.240Z,26.70
2022-08-04T20:47:54.135Z,26.80
2022-08-04T20:50:29.519Z,26.80
2022-08-04T20:52:59.760Z,26.70
2022-08-04T20:55:29.886Z,26.60
2022-08-04T20:58:03.442Z,26.50
2022-08-04T21:00:32.983Z,26.40
2022-08-04T21:03:03.089Z,26.40
2022-08-04T21:05:34.162Z,26.20
2022-08-04T21:08:03.033Z,26.20
2022-08-04T21:10:31.999Z,26.20
2022-08-04T21:13:00.659Z,26.10
2022-08-04T21:15:58.336Z,26.00
2022-08-04T21:18:18.231Z,26.00
2022-08-04T21:20:59.733Z,26.00
2022-08-04T21:23:29.461Z,26.00
2022-08-04T21:26:03.594Z,26.00
2022-08-04T21:28:32.381Z,25.90
2022-08-04T21:31:02.330Z,25.80
2022-08-04T21:33:50.092Z,25.80
2022-08-04T21:36:22.472Z,25.80
2022-08-04T21:38:56.436Z,25.70
2022-08-04T21:41:27.271Z,25.70
2022-08-04T21:43:58.951Z,25.60
2022-08-04T21:46:30.214Z,25.60
2022-08-04T21:49:00.157Z,25.50
2022-08-04T21:52:00.416Z,25.50
2022-08-04T21:54:24.067Z,25.40
2022-08-04T21:56:52.765Z,25.30
2022-08-04T21:59:23.559Z,25.20
2022-08-04T22:02:01.252Z,25.20
2022-08-04T22:04:31.013Z,25.20
2022-08-04T22:07:03.319Z,25.10
2022-08-04T22:09:38.689Z,25.10
2022-08-04T22:12:12.316Z,25.20
2022-08-04T22:14:41.495Z,25.10
2022-08-04T22:17:13.667Z,25.00
2022-08-04T22:19:55.533Z,25.00
2022-08-04T22:22:29.501Z,24.90
2022-08-04T22:25:12.507Z,24.70
2022-08-04T22:28:03.736Z,24.70
2022-08-04T22:30:37.037Z,24.70
2022-08-04T22:33:08.505Z,24.60
2022-08-04T22:35:44.037Z,24.50
2022-08-04T22:38:24.100Z,24.50
2022-08-04T22:41:05.034Z,24.40
2022-08-04T22:43:34.880Z,24.50
2022-08-04T22:46:08.629Z,24.50
2022-08-04T22:48:43.327Z,24.60
2022-08-04T22:51:12.916Z,24.50
2022-08-04T22:53:48.860Z,24.40
2022-08-04T22:56:38.394Z,24.50
2022-08-04T22:59:11.354Z,24.50
2022-08-04T23:01:59.584Z,24.40
2022-08-04T23:04:32.515Z,24.40
2022-08-04T23:07:09.105Z,24.30
2022-08-04T23:09:49.874Z,24.20
2022-08-04T23:12:26.166Z,24.10
2022-08-04T23:14:56.545Z,24.10
2022-08-04T23:17:27.407Z,24.10
2022-08-04T23:19:58.871Z,24.10
2022-08-04T23:22:41.413Z,24.00
2022-08-04T23:25:15.818Z,24.10
2022-08-04T23:27:50.869Z,24.00
2022-08-04T23:30:24.772Z,24.00
2022-08-04T23:32:58.987Z,24.00
2022-08-04T23:35:28.183Z,24.10
2022-08-04T23:37:59.858Z,24.10
2022-08-04T23:40:50.510Z,24.10
2022-08-04T23:43:20.359Z,24.10
2022-08-04T23:46:05.151Z,24.20
2022-08-04T23:48:39.064Z,24.00
2022-08-04T23:51:14.736Z,24.00
2022-08-04T23:54:02.556Z,24.00
2022-08-04T23:56:35.856Z,24.00
2022-08-04T23:59:18.026Z,23.90
